sensor_id;sensor_type;location;lat;lon;timestamp;P1;durP1;ratioP1;P2;durP2;ratioP2
37785;SDS011;23625;48.784;9.336;2023-12-20T00:01:05;1.75;;;1.15;;
37785;SDS011;23625;48.784;9.336;2023-12-20T00:03:30;2.30;;;1.58;;
37785;SDS011;23625;48.784;9.336;2023-12-20T00:05:56;3.60;;;1.73;;
37785;SDS011;23625;48.784;9.336;2023-12-20T00:08:21;2.33;;;1.65;;
37785;SDS011;23625;48.784;9.336;2023-12-20T00:10:47;1.35;;;1.08;;
37785;SDS011;23625;48.784;9.336;2023-12-20T00:13:12;2.80;;;1.27;;
37785;SDS011;23625;48.784;9.336;2023-12-20T00:15:38;2.33;;;1.20;;
37785;SDS011;23625;48.784;9.336;2023-12-20T00:18:04;2.85;;;1.52;;
37785;SDS011;23625;48.784;9.336;2023-12-20T00:20:30;2.58;;;1.38;;
37785;SDS011;23625;48.784;9.336;2023-12-20T00:22:56;2.35;;;1.48;;
37785;SDS011;23625;48.784;9.336;2023-12-20T00:25:25;3.88;;;1.50;;
37785;SDS011;23625;48.784;9.336;2023-12-20T00:27:51;2.28;;;1.30;;
37785;SDS011;23625;48.784;9.336;2023-12-20T00:30:17;2.25;;;1.20;;
37785;SDS011;23625;48.784;9.336;2023-12-20T00:32:43;4.03;;;1.58;;
37785;SDS011;23625;48.784;9.336;2023-12-20T00:35:11;1.70;;;1.17;;
37785;SDS011;23625;48.784;9.336;2023-12-20T00:37:41;3.22;;;1.02;;
37785;SDS011;23625;48.784;9.336;2023-12-20T00:40:07;3.38;;;1.42;;
37785;SDS011;23625;48.784;9.336;2023-12-20T00:42:33;1.77;;;1.40;;
37785;SDS011;23625;48.784;9.336;2023-12-20T00:44:59;1.88;;;1.17;;
37785;SDS011;23625;48.784;9.336;2023-12-20T00:47:25;1.45;;;0.90;;
37785;SDS011;23625;48.784;9.336;2023-12-20T00:49:51;1.23;;;1.10;;
37785;SDS011;23625;48.784;9.336;2023-12-20T00:52:18;2.50;;;1.27;;
37785;SDS011;23625;48.784;9.336;2023-12-20T00:54:44;1.17;;;1.02;;
37785;SDS011;23625;48.784;9.336;2023-12-20T00:57:09;3.15;;;1.40;;
37785;SDS011;23625;48.784;9.336;2023-12-20T00:59:35;1.40;;;0.90;;
37785;SDS011;23625;48.784;9.336;2023-12-20T01:02:01;2.25;;;1.20;;
37785;SDS011;23625;48.784;9.336;2023-12-20T01:04:27;3.10;;;1.20;;
37785;SDS011;23625;48.784;9.336;2023-12-20T01:06:52;1.73;;;1.20;;
37785;SDS011;23625;48.784;9.336;2023-12-20T01:09:18;1.95;;;0.98;;
37785;SDS011;23625;48.784;9.336;2023-12-20T01:11:44;1.52;;;0.90;;
37785;SDS011;23625;48.784;9.336;2023-12-20T01:14:11;2.83;;;1.17;;
37785;SDS011;23625;48.784;9.336;2023-12-20T01:16:37;1.92;;;1.23;;
37785;SDS011;23625;48.784;9.336;2023-12-20T01:19:02;1.48;;;0.90;;
37785;SDS011;23625;48.784;9.336;2023-12-20T01:21:28;1.80;;;1.50;;
37785;SDS011;23625;48.784;9.336;2023-12-20T01:23:53;2.45;;;1.73;;
37785;SDS011;23625;48.784;9.336;2023-12-20T01:26:19;2.40;;;1.27;;
37785;SDS011;23625;48.784;9.336;2023-12-20T01:28:44;3.05;;;0.82;;
37785;SDS011;23625;48.784;9.336;2023-12-20T01:31:10;1.52;;;1.30;;
37785;SDS011;23625;48.784;9.336;2023-12-20T01:33:35;2.97;;;1.30;;
37785;SDS011;23625;48.784;9.336;2023-12-20T01:36:01;4.07;;;1.25;;
37785;SDS011;23625;48.784;9.336;2023-12-20T01:38:27;3.35;;;0.95;;
37785;SDS011;23625;48.784;9.336;2023-12-20T01:40:53;1.92;;;0.93;;
37785;SDS011;23625;48.784;9.336;2023-12-20T01:43:18;2.33;;;1.00;;
37785;SDS011;23625;48.784;9.336;2023-12-20T01:45:44;2.92;;;1.75;;
37785;SDS011;23625;48.784;9.336;2023-12-20T01:48:10;2.10;;;1.20;;
37785;SDS011;23625;48.784;9.336;2023-12-20T01:50:36;1.98;;;1.00;;
37785;SDS011;23625;48.784;9.336;2023-12-20T01:53:03;1.98;;;0.90;;
37785;SDS011;23625;48.784;9.336;2023-12-20T01:55:31;3.05;;;0.90;;
37785;SDS011;23625;48.784;9.336;2023-12-20T01:57:59;2.05;;;1.00;;
37785;SDS011;23625;48.784;9.336;2023-12-20T02:00:26;3.03;;;0.90;;
37785;SDS011;23625;48.784;9.336;2023-12-20T02:02:53;1.90;;;0.93;;
37785;SDS011;23625;48.784;9.336;2023-12-20T02:05:20;4.75;;;1.35;;
37785;SDS011;23625;48.784;9.336;2023-12-20T02:07:47;1.17;;;1.00;;
37785;SDS011;23625;48.784;9.336;2023-12-20T02:10:13;2.28;;;1.30;;
37785;SDS011;23625;48.784;9.336;2023-12-20T02:12:38;1.63;;;1.00;;
37785;SDS011;23625;48.784;9.336;2023-12-20T02:15:05;3.33;;;0.68;;
37785;SDS011;23625;48.784;9.336;2023-12-20T02:17:32;2.30;;;1.23;;
37785;SDS011;23625;48.784;9.336;2023-12-20T02:19:58;1.13;;;0.90;;
37785;SDS011;23625;48.784;9.336;2023-12-20T02:22:24;2.15;;;1.02;;
37785;SDS011;23625;48.784;9.336;2023-12-20T02:24:50;2.47;;;1.13;;
37785;SDS011;23625;48.784;9.336;2023-12-20T02:27:16;1.30;;;1.00;;
37785;SDS011;23625;48.784;9.336;2023-12-20T02:29:44;2.63;;;1.10;;
37785;SDS011;23625;48.784;9.336;2023-12-20T02:32:13;3.30;;;1.00;;
37785;SDS011;23625;48.784;9.336;2023-12-20T02:34:39;2.00;;;1.15;;
37785;SDS011;23625;48.784;9.336;2023-12-20T02:37:04;2.22;;;0.85;;
37785;SDS011;23625;48.784;9.336;2023-12-20T02:39:30;1.58;;;0.90;;
37785;SDS011;23625;48.784;9.336;2023-12-20T02:41:55;1.70;;;0.93;;
37785;SDS011;23625;48.784;9.336;2023-12-20T02:44:21;3.45;;;1.00;;
37785;SDS011;23625;48.784;9.336;2023-12-20T02:46:47;4.22;;;0.90;;
37785;SDS011;23625;48.784;9.336;2023-12-20T02:49:12;3.08;;;1.00;;
37785;SDS011;23625;48.784;9.336;2023-12-20T02:51:38;2.15;;;0.95;;
37785;SDS011;23625;48.784;9.336;2023-12-20T02:54:04;1.83;;;0.95;;
37785;SDS011;23625;48.784;9.336;2023-12-20T02:56:30;2.47;;;1.30;;
37785;SDS011;23625;48.784;9.336;2023-12-20T02:58:56;1.40;;;0.90;;
37785;SDS011;23625;48.784;9.336;2023-12-20T03:01:22;1.23;;;1.10;;
37785;SDS011;23625;48.784;9.336;2023-12-20T03:03:47;1.83;;;0.93;;
37785;SDS011;23625;48.784;9.336;2023-12-20T03:06:16;1.55;;;1.25;;
37785;SDS011;23625;48.784;9.336;2023-12-20T03:08:45;0.95;;;0.85;;
37785;SDS011;23625;48.784;9.336;2023-12-20T03:11:11;2.47;;;0.90;;
37785;SDS011;23625;48.784;9.336;2023-12-20T03:13:37;0.98;;;0.80;;
37785;SDS011;23625;48.784;9.336;2023-12-20T03:16:09;3.28;;;1.10;;
37785;SDS011;23625;48.784;9.336;2023-12-20T03:18:38;3.03;;;0.98;;
37785;SDS011;23625;48.784;9.336;2023-12-20T03:21:04;4.05;;;1.00;;
37785;SDS011;23625;48.784;9.336;2023-12-20T03:23:30;1.67;;;0.80;;
37785;SDS011;23625;48.784;9.336;2023-12-20T03:25:57;2.42;;;0.77;;
37785;SDS011;23625;48.784;9.336;2023-12-20T03:28:23;1.42;;;1.10;;
37785;SDS011;23625;48.784;9.336;2023-12-20T03:30:49;1.02;;;0.80;;
37785;SDS011;23625;48.784;9.336;2023-12-20T03:33:14;1.05;;;0.80;;
37785;SDS011;23625;48.784;9.336;2023-12-20T03:35:40;1.00;;;0.80;;
37785;SDS011;23625;48.784;9.336;2023-12-20T03:38:06;4.25;;;0.80;;
37785;SDS011;23625;48.784;9.336;2023-12-20T03:40:32;3.90;;;1.05;;
37785;SDS011;23625;48.784;9.336;2023-12-20T03:42:57;5.68;;;1.95;;
37785;SDS011;23625;48.784;9.336;2023-12-20T03:45:23;2.03;;;1.10;;
37785;SDS011;23625;48.784;9.336;2023-12-20T03:47:49;1.55;;;0.70;;
37785;SDS011;23625;48.784;9.336;2023-12-20T03:50:14;1.48;;;0.90;;
37785;SDS011;23625;48.784;9.336;2023-12-20T03:52:40;0.85;;;0.55;;
37785;SDS011;23625;48.784;9.336;2023-12-20T03:55:06;1.65;;;0.70;;
37785;SDS011;23625;48.784;9.336;2023-12-20T03:57:31;1.20;;;0.80;;
37785;SDS011;23625;48.784;9.336;2023-12-20T03:59:57;2.22;;;0.73;;
37785;SDS011;23625;48.784;9.336;2023-12-20T04:02:22;0.98;;;0.60;;
37785;SDS011;23625;48.784;9.336;2023-12-20T04:04:48;1.05;;;0.50;;
37785;SDS011;23625;48.784;9.336;2023-12-20T04:07:13;2.70;;;0.47;;
37785;SDS011;23625;48.784;9.336;2023-12-20T04:09:40;0.65;;;0.38;;
37785;SDS011;23625;48.784;9.336;2023-12-20T04:12:06;0.50;;;0.38;;
37785;SDS011;23625;48.784;9.336;2023-12-20T04:14:32;0.30;;;0.30;;
37785;SDS011;23625;48.784;9.336;2023-12-20T04:16:57;0.63;;;0.50;;
37785;SDS011;23625;48.784;9.336;2023-12-20T04:19:23;0.52;;;0.30;;
37785;SDS011;23625;48.784;9.336;2023-12-20T04:21:49;0.43;;;0.25;;
37785;SDS011;23625;48.784;9.336;2023-12-20T04:24:14;0.10;;;0.10;;
37785;SDS011;23625;48.784;9.336;2023-12-20T04:26:40;0.35;;;0.30;;
37785;SDS011;23625;48.784;9.336;2023-12-20T04:29:06;2.47;;;0.30;;
37785;SDS011;23625;48.784;9.336;2023-12-20T04:31:31;0.28;;;0.28;;
37785;SDS011;23625;48.784;9.336;2023-12-20T04:33:57;1.60;;;0.25;;
37785;SDS011;23625;48.784;9.336;2023-12-20T04:36:22;0.55;;;0.30;;
37785;SDS011;23625;48.784;9.336;2023-12-20T04:38:50;0.30;;;0.20;;
37785;SDS011;23625;48.784;9.336;2023-12-20T04:41:15;2.65;;;0.20;;
37785;SDS011;23625;48.784;9.336;2023-12-20T04:43:41;1.20;;;0.20;;
37785;SDS011;23625;48.784;9.336;2023-12-20T04:46:06;0.65;;;0.20;;
37785;SDS011;23625;48.784;9.336;2023-12-20T04:48:32;0.38;;;0.20;;
37785;SDS011;23625;48.784;9.336;2023-12-20T04:50:58;0.52;;;0.20;;
37785;SDS011;23625;48.784;9.336;2023-12-20T04:53:23;0.65;;;0.32;;
37785;SDS011;23625;48.784;9.336;2023-12-20T04:55:49;0.98;;;0.40;;
37785;SDS011;23625;48.784;9.336;2023-12-20T04:58:14;0.40;;;0.30;;
37785;SDS011;23625;48.784;9.336;2023-12-20T05:00:40;1.25;;;0.20;;
37785;SDS011;23625;48.784;9.336;2023-12-20T05:03:06;2.20;;;0.22;;
37785;SDS011;23625;48.784;9.336;2023-12-20T05:05:31;0.32;;;0.30;;
37785;SDS011;23625;48.784;9.336;2023-12-20T05:07:57;2.38;;;0.20;;
37785;SDS011;23625;48.784;9.336;2023-12-20T05:10:22;3.00;;;1.08;;
37785;SDS011;23625;48.784;9.336;2023-12-20T05:12:48;0.20;;;0.20;;
37785;SDS011;23625;48.784;9.336;2023-12-20T05:15:13;0.32;;;0.20;;
37785;SDS011;23625;48.784;9.336;2023-12-20T05:17:39;4.13;;;0.40;;
37785;SDS011;23625;48.784;9.336;2023-12-20T05:20:05;0.30;;;0.30;;
37785;SDS011;23625;48.784;9.336;2023-12-20T05:22:31;0.30;;;0.28;;
37785;SDS011;23625;48.784;9.336;2023-12-20T05:24:56;0.20;;;0.20;;
37785;SDS011;23625;48.784;9.336;2023-12-20T05:27:22;0.40;;;0.28;;
37785;SDS011;23625;48.784;9.336;2023-12-20T05:29:47;3.03;;;0.70;;
37785;SDS011;23625;48.784;9.336;2023-12-20T05:32:13;0.75;;;0.25;;
37785;SDS011;23625;48.784;9.336;2023-12-20T05:34:39;0.20;;;0.20;;
37785;SDS011;23625;48.784;9.336;2023-12-20T05:37:04;0.15;;;0.15;;
37785;SDS011;23625;48.784;9.336;2023-12-20T05:39:30;0.20;;;0.20;;
37785;SDS011;23625;48.784;9.336;2023-12-20T05:41:56;2.28;;;0.38;;
37785;SDS011;23625;48.784;9.336;2023-12-20T05:44:21;0.20;;;0.20;;
37785;SDS011;23625;48.784;9.336;2023-12-20T05:46:47;1.02;;;0.30;;
37785;SDS011;23625;48.784;9.336;2023-12-20T05:49:12;0.75;;;0.20;;
37785;SDS011;23625;48.784;9.336;2023-12-20T05:51:38;0.73;;;0.30;;
37785;SDS011;23625;48.784;9.336;2023-12-20T05:54:04;0.68;;;0.20;;
37785;SDS011;23625;48.784;9.336;2023-12-20T05:56:30;1.65;;;0.30;;
37785;SDS011;23625;48.784;9.336;2023-12-20T05:58:55;0.20;;;0.20;;
37785;SDS011;23625;48.784;9.336;2023-12-20T06:01:21;0.77;;;0.45;;
37785;SDS011;23625;48.784;9.336;2023-12-20T06:03:46;0.73;;;0.30;;
37785;SDS011;23625;48.784;9.336;2023-12-20T06:06:12;0.40;;;0.30;;
37785;SDS011;23625;48.784;9.336;2023-12-20T06:08:38;1.23;;;0.40;;
37785;SDS011;23625;48.784;9.336;2023-12-20T06:11:03;1.55;;;1.38;;
37785;SDS011;23625;48.784;9.336;2023-12-20T06:13:30;1.38;;;0.55;;
37785;SDS011;23625;48.784;9.336;2023-12-20T06:15:56;2.30;;;0.47;;
37785;SDS011;23625;48.784;9.336;2023-12-20T06:18:22;2.08;;;0.63;;
37785;SDS011;23625;48.784;9.336;2023-12-20T06:20:47;0.60;;;0.38;;
37785;SDS011;23625;48.784;9.336;2023-12-20T06:23:13;1.17;;;0.30;;
37785;SDS011;23625;48.784;9.336;2023-12-20T06:25:39;1.15;;;0.60;;
37785;SDS011;23625;48.784;9.336;2023-12-20T06:28:04;0.85;;;0.50;;
37785;SDS011;23625;48.784;9.336;2023-12-20T06:30:31;0.88;;;0.40;;
37785;SDS011;23625;48.784;9.336;2023-12-20T06:32:57;1.40;;;1.08;;
37785;SDS011;23625;48.784;9.336;2023-12-20T06:35:23;1.77;;;0.50;;
37785;SDS011;23625;48.784;9.336;2023-12-20T06:37:49;0.43;;;0.40;;
37785;SDS011;23625;48.784;9.336;2023-12-20T06:40:15;1.58;;;0.50;;
37785;SDS011;23625;48.784;9.336;2023-12-20T06:42:41;1.13;;;0.50;;
37785;SDS011;23625;48.784;9.336;2023-12-20T06:45:07;3.03;;;0.75;;
37785;SDS011;23625;48.784;9.336;2023-12-20T06:47:33;2.60;;;0.50;;
37785;SDS011;23625;48.784;9.336;2023-12-20T06:49:58;3.10;;;0.88;;
37785;SDS011;23625;48.784;9.336;2023-12-20T06:52:24;2.35;;;0.80;;
37785;SDS011;23625;48.784;9.336;2023-12-20T06:54:49;2.97;;;1.00;;
37785;SDS011;23625;48.784;9.336;2023-12-20T06:57:15;4.32;;;0.70;;
37785;SDS011;23625;48.784;9.336;2023-12-20T06:59:41;0.80;;;0.80;;
37785;SDS011;23625;48.784;9.336;2023-12-20T07:02:07;2.15;;;0.63;;
37785;SDS011;23625;48.784;9.336;2023-12-20T07:04:33;0.70;;;0.60;;
37785;SDS011;23625;48.784;9.336;2023-12-20T07:06:59;1.70;;;0.82;;
37785;SDS011;23625;48.784;9.336;2023-12-20T07:09:25;1.45;;;0.60;;
37785;SDS011;23625;48.784;9.336;2023-12-20T07:11:52;1.70;;;0.73;;
37785;SDS011;23625;48.784;9.336;2023-12-20T07:14:18;3.10;;;0.70;;
37785;SDS011;23625;48.784;9.336;2023-12-20T07:16:43;15.00;;;4.88;;
37785;SDS011;23625;48.784;9.336;2023-12-20T07:19:09;6.05;;;2.78;;
37785;SDS011;23625;48.784;9.336;2023-12-20T07:21:34;5.35;;;2.65;;
37785;SDS011;23625;48.784;9.336;2023-12-20T07:24:00;2.42;;;1.45;;
37785;SDS011;23625;48.784;9.336;2023-12-20T07:26:25;1.10;;;1.00;;
37785;SDS011;23625;48.784;9.336;2023-12-20T07:28:51;3.60;;;2.70;;
37785;SDS011;23625;48.784;9.336;2023-12-20T07:31:17;3.92;;;2.08;;
37785;SDS011;23625;48.784;9.336;2023-12-20T07:33:42;3.15;;;2.35;;
37785;SDS011;23625;48.784;9.336;2023-12-20T07:36:08;5.72;;;1.88;;
37785;SDS011;23625;48.784;9.336;2023-12-20T07:38:34;2.58;;;2.15;;
37785;SDS011;23625;48.784;9.336;2023-12-20T07:40:59;3.20;;;2.33;;
37785;SDS011;23625;48.784;9.336;2023-12-20T07:43:25;9.88;;;2.28;;
37785;SDS011;23625;48.784;9.336;2023-12-20T07:45:50;9.23;;;3.50;;
37785;SDS011;23625;48.784;9.336;2023-12-20T07:48:16;5.43;;;3.20;;
37785;SDS011;23625;48.784;9.336;2023-12-20T07:50:42;6.55;;;3.97;;
37785;SDS011;23625;48.784;9.336;2023-12-20T07:53:07;14.30;;;8.80;;
37785;SDS011;23625;48.784;9.336;2023-12-20T07:55:33;8.40;;;4.93;;
37785;SDS011;23625;48.784;9.336;2023-12-20T07:57:59;3.85;;;2.63;;
37785;SDS011;23625;48.784;9.336;2023-12-20T08:00:25;6.32;;;3.80;;
37785;SDS011;23625;48.784;9.336;2023-12-20T08:02:51;7.18;;;4.03;;
37785;SDS011;23625;48.784;9.336;2023-12-20T08:05:17;4.40;;;3.10;;
37785;SDS011;23625;48.784;9.336;2023-12-20T08:07:42;6.78;;;3.95;;
37785;SDS011;23625;48.784;9.336;2023-12-20T08:10:08;5.32;;;3.53;;
37785;SDS011;23625;48.784;9.336;2023-12-20T08:12:34;6.63;;;3.47;;
37785;SDS011;23625;48.784;9.336;2023-12-20T08:14:59;3.90;;;2.80;;
37785;SDS011;23625;48.784;9.336;2023-12-20T08:17:25;3.63;;;2.67;;
37785;SDS011;23625;48.784;9.336;2023-12-20T08:19:51;6.38;;;3.40;;
37785;SDS011;23625;48.784;9.336;2023-12-20T08:22:16;5.97;;;3.20;;
37785;SDS011;23625;48.784;9.336;2023-12-20T08:24:42;3.78;;;2.80;;
37785;SDS011;23625;48.784;9.336;2023-12-20T08:27:08;4.47;;;3.33;;
37785;SDS011;23625;48.784;9.336;2023-12-20T08:29:34;3.70;;;2.60;;
37785;SDS011;23625;48.784;9.336;2023-12-20T08:32:00;6.13;;;2.83;;
37785;SDS011;23625;48.784;9.336;2023-12-20T08:34:26;5.20;;;2.85;;
37785;SDS011;23625;48.784;9.336;2023-12-20T08:36:51;8.48;;;4.05;;
37785;SDS011;23625;48.784;9.336;2023-12-20T08:39:17;9.55;;;3.38;;
37785;SDS011;23625;48.784;9.336;2023-12-20T08:41:43;6.13;;;2.97;;
37785;SDS011;23625;48.784;9.336;2023-12-20T08:44:09;3.97;;;2.95;;
37785;SDS011;23625;48.784;9.336;2023-12-20T08:46:35;6.78;;;2.75;;
37785;SDS011;23625;48.784;9.336;2023-12-20T08:49:01;3.90;;;2.17;;
37785;SDS011;23625;48.784;9.336;2023-12-20T08:51:27;5.15;;;3.60;;
37785;SDS011;23625;48.784;9.336;2023-12-20T08:53:53;4.68;;;2.78;;
37785;SDS011;23625;48.784;9.336;2023-12-20T08:56:19;6.85;;;2.85;;
37785;SDS011;23625;48.784;9.336;2023-12-20T08:58:48;9.88;;;3.05;;
37785;SDS011;23625;48.784;9.336;2023-12-20T09:01:14;6.88;;;3.65;;
37785;SDS011;23625;48.784;9.336;2023-12-20T09:03:40;5.35;;;3.08;;
37785;SDS011;23625;48.784;9.336;2023-12-20T09:06:05;8.23;;;4.10;;
37785;SDS011;23625;48.784;9.336;2023-12-20T09:08:31;8.70;;;3.72;;
37785;SDS011;23625;48.784;9.336;2023-12-20T09:10:57;9.07;;;2.92;;
37785;SDS011;23625;48.784;9.336;2023-12-20T09:13:23;4.18;;;2.60;;
37785;SDS011;23625;48.784;9.336;2023-12-20T09:15:54;6.68;;;2.60;;
37785;SDS011;23625;48.784;9.336;2023-12-20T09:18:20;7.22;;;2.10;;
37785;SDS011;23625;48.784;9.336;2023-12-20T09:20:46;4.28;;;2.20;;
37785;SDS011;23625;48.784;9.336;2023-12-20T09:23:11;4.25;;;2.33;;
37785;SDS011;23625;48.784;9.336;2023-12-20T09:25:37;6.15;;;1.95;;
37785;SDS011;23625;48.784;9.336;2023-12-20T09:28:02;9.30;;;2.35;;
37785;SDS011;23625;48.784;9.336;2023-12-20T09:30:28;2.95;;;2.25;;
37785;SDS011;23625;48.784;9.336;2023-12-20T09:32:54;9.00;;;2.65;;
37785;SDS011;23625;48.784;9.336;2023-12-20T09:35:20;5.15;;;1.98;;
37785;SDS011;23625;48.784;9.336;2023-12-20T09:37:45;6.35;;;2.47;;
37785;SDS011;23625;48.784;9.336;2023-12-20T09:40:12;5.80;;;3.13;;
37785;SDS011;23625;48.784;9.336;2023-12-20T09:45:14;9.52;;;3.53;;
37785;SDS011;23625;48.784;9.336;2023-12-20T09:47:43;9.32;;;2.92;;
37785;SDS011;23625;48.784;9.336;2023-12-20T09:50:09;4.88;;;2.45;;
37785;SDS011;23625;48.784;9.336;2023-12-20T09:52:36;8.00;;;3.08;;
37785;SDS011;23625;48.784;9.336;2023-12-20T09:55:01;5.63;;;2.50;;
37785;SDS011;23625;48.784;9.336;2023-12-20T09:57:31;5.38;;;2.42;;
37785;SDS011;23625;48.784;9.336;2023-12-20T09:59:57;4.72;;;1.75;;
37785;SDS011;23625;48.784;9.336;2023-12-20T10:02:24;4.95;;;1.58;;
37785;SDS011;23625;48.784;9.336;2023-12-20T10:04:52;6.10;;;1.50;;
37785;SDS011;23625;48.784;9.336;2023-12-20T10:07:19;8.95;;;1.20;;
37785;SDS011;23625;48.784;9.336;2023-12-20T10:09:45;5.55;;;1.60;;
37785;SDS011;23625;48.784;9.336;2023-12-20T10:12:12;4.90;;;1.48;;
37785;SDS011;23625;48.784;9.336;2023-12-20T10:14:38;9.73;;;1.55;;
37785;SDS011;23625;48.784;9.336;2023-12-20T10:17:04;3.33;;;1.30;;
37785;SDS011;23625;48.784;9.336;2023-12-20T10:19:30;7.45;;;1.40;;
37785;SDS011;23625;48.784;9.336;2023-12-20T10:22:00;7.10;;;2.22;;
37785;SDS011;23625;48.784;9.336;2023-12-20T10:24:28;4.18;;;1.30;;
37785;SDS011;23625;48.784;9.336;2023-12-20T10:27:04;5.32;;;1.88;;
37785;SDS011;23625;48.784;9.336;2023-12-20T10:29:36;5.93;;;1.58;;
37785;SDS011;23625;48.784;9.336;2023-12-20T10:34:54;10.07;;;1.35;;
37785;SDS011;23625;48.784;9.336;2023-12-20T10:37:21;8.15;;;1.48;;
37785;SDS011;23625;48.784;9.336;2023-12-20T10:39:50;5.40;;;1.30;;
37785;SDS011;23625;48.784;9.336;2023-12-20T10:42:20;8.73;;;1.75;;
37785;SDS011;23625;48.784;9.336;2023-12-20T10:44:47;7.15;;;1.80;;
37785;SDS011;23625;48.784;9.336;2023-12-20T10:47:14;6.05;;;1.60;;
37785;SDS011;23625;48.784;9.336;2023-12-20T10:49:41;8.32;;;1.77;;
37785;SDS011;23625;48.784;9.336;2023-12-20T10:52:07;10.65;;;2.40;;
37785;SDS011;23625;48.784;9.336;2023-12-20T10:54:34;4.15;;;1.30;;
37785;SDS011;23625;48.784;9.336;2023-12-20T10:56:59;9.45;;;2.03;;
37785;SDS011;23625;48.784;9.336;2023-12-20T10:59:28;6.30;;;1.60;;
37785;SDS011;23625;48.784;9.336;2023-12-20T11:01:57;11.32;;;2.50;;
37785;SDS011;23625;48.784;9.336;2023-12-20T11:04:28;4.82;;;1.52;;
37785;SDS011;23625;48.784;9.336;2023-12-20T11:07:08;17.65;;;1.75;;
37785;SDS011;23625;48.784;9.336;2023-12-20T11:09:43;5.10;;;1.35;;
37785;SDS011;23625;48.784;9.336;2023-12-20T11:12:16;12.48;;;1.90;;
37785;SDS011;23625;48.784;9.336;2023-12-20T11:14:48;11.27;;;2.17;;
37785;SDS011;23625;48.784;9.336;2023-12-20T11:17:15;8.73;;;1.48;;
37785;SDS011;23625;48.784;9.336;2023-12-20T11:22:26;8.18;;;1.48;;
37785;SDS011;23625;48.784;9.336;2023-12-20T11:24:58;8.23;;;1.52;;
37785;SDS011;23625;48.784;9.336;2023-12-20T11:27:34;10.43;;;1.70;;
37785;SDS011;23625;48.784;9.336;2023-12-20T11:30:02;5.55;;;1.48;;
37785;SDS011;23625;48.784;9.336;2023-12-20T11:32:32;7.00;;;1.55;;
37785;SDS011;23625;48.784;9.336;2023-12-20T11:35:02;9.55;;;1.80;;
37785;SDS011;23625;48.784;9.336;2023-12-20T11:37:43;6.93;;;1.42;;
37785;SDS011;23625;48.784;9.336;2023-12-20T11:40:11;6.25;;;1.23;;
37785;SDS011;23625;48.784;9.336;2023-12-20T11:42:40;5.72;;;1.50;;
37785;SDS011;23625;48.784;9.336;2023-12-20T11:45:19;11.20;;;2.25;;
37785;SDS011;23625;48.784;9.336;2023-12-20T11:47:49;11.50;;;3.28;;
37785;SDS011;23625;48.784;9.336;2023-12-20T11:50:16;11.18;;;2.58;;
37785;SDS011;23625;48.784;9.336;2023-12-20T11:52:45;14.02;;;2.67;;
37785;SDS011;23625;48.784;9.336;2023-12-20T11:55:10;8.38;;;1.80;;
37785;SDS011;23625;48.784;9.336;2023-12-20T11:57:36;6.65;;;2.28;;
37785;SDS011;23625;48.784;9.336;2023-12-20T12:00:02;13.52;;;4.18;;
37785;SDS011;23625;48.784;9.336;2023-12-20T12:02:29;7.53;;;2.80;;
37785;SDS011;23625;48.784;9.336;2023-12-20T12:04:55;11.13;;;2.65;;
37785;SDS011;23625;48.784;9.336;2023-12-20T12:07:21;6.65;;;1.80;;
37785;SDS011;23625;48.784;9.336;2023-12-20T12:09:47;9.13;;;1.63;;
37785;SDS011;23625;48.784;9.336;2023-12-20T12:12:13;2.10;;;1.13;;
37785;SDS011;23625;48.784;9.336;2023-12-20T12:14:39;13.48;;;2.03;;
37785;SDS011;23625;48.784;9.336;2023-12-20T12:17:10;8.07;;;1.75;;
37785;SDS011;23625;48.784;9.336;2023-12-20T12:19:42;9.25;;;1.40;;
37785;SDS011;23625;48.784;9.336;2023-12-20T12:22:09;14.60;;;1.88;;
37785;SDS011;23625;48.784;9.336;2023-12-20T12:24:44;4.85;;;2.15;;
37785;SDS011;23625;48.784;9.336;2023-12-20T12:27:14;5.38;;;1.40;;
37785;SDS011;23625;48.784;9.336;2023-12-20T12:29:41;7.82;;;2.50;;
37785;SDS011;23625;48.784;9.336;2023-12-20T12:32:24;5.90;;;1.20;;
37785;SDS011;23625;48.784;9.336;2023-12-20T12:34:50;5.32;;;1.67;;
37785;SDS011;23625;48.784;9.336;2023-12-20T12:37:16;6.68;;;1.65;;
37785;SDS011;23625;48.784;9.336;2023-12-20T12:39:42;9.10;;;1.55;;
37785;SDS011;23625;48.784;9.336;2023-12-20T12:42:07;9.52;;;1.80;;
37785;SDS011;23625;48.784;9.336;2023-12-20T12:44:33;12.73;;;1.90;;
37785;SDS011;23625;48.784;9.336;2023-12-20T12:46:58;19.90;;;5.72;;
37785;SDS011;23625;48.784;9.336;2023-12-20T12:49:24;5.85;;;1.55;;
37785;SDS011;23625;48.784;9.336;2023-12-20T12:51:50;10.73;;;1.70;;
37785;SDS011;23625;48.784;9.336;2023-12-20T12:54:16;4.53;;;1.63;;
37785;SDS011;23625;48.784;9.336;2023-12-20T12:56:43;5.13;;;1.73;;
37785;SDS011;23625;48.784;9.336;2023-12-20T12:59:09;9.68;;;1.50;;
37785;SDS011;23625;48.784;9.336;2023-12-20T13:01:35;7.95;;;1.88;;
37785;SDS011;23625;48.784;9.336;2023-12-20T13:04:00;6.97;;;1.70;;
37785;SDS011;23625;48.784;9.336;2023-12-20T13:06:28;9.02;;;2.25;;
37785;SDS011;23625;48.784;9.336;2023-12-20T13:08:54;9.82;;;1.48;;
37785;SDS011;23625;48.784;9.336;2023-12-20T13:11:20;9.80;;;1.70;;
37785;SDS011;23625;48.784;9.336;2023-12-20T13:13:46;7.88;;;1.90;;
37785;SDS011;23625;48.784;9.336;2023-12-20T13:16:11;8.65;;;1.92;;
37785;SDS011;23625;48.784;9.336;2023-12-20T13:18:38;6.75;;;1.70;;
37785;SDS011;23625;48.784;9.336;2023-12-20T13:21:07;7.28;;;3.42;;
37785;SDS011;23625;48.784;9.336;2023-12-20T13:23:33;16.80;;;2.80;;
37785;SDS011;23625;48.784;9.336;2023-12-20T13:25:58;7.57;;;3.13;;
37785;SDS011;23625;48.784;9.336;2023-12-20T13:28:24;9.23;;;1.73;;
37785;SDS011;23625;48.784;9.336;2023-12-20T13:30:49;7.25;;;1.20;;
37785;SDS011;23625;48.784;9.336;2023-12-20T13:33:15;6.32;;;1.85;;
37785;SDS011;23625;48.784;9.336;2023-12-20T13:35:41;7.75;;;1.40;;
37785;SDS011;23625;48.784;9.336;2023-12-20T13:38:06;2.35;;;1.27;;
37785;SDS011;23625;48.784;9.336;2023-12-20T13:40:32;9.23;;;1.73;;
37785;SDS011;23625;48.784;9.336;2023-12-20T13:42:58;6.85;;;1.52;;
37785;SDS011;23625;48.784;9.336;2023-12-20T13:45:24;7.93;;;2.20;;
37785;SDS011;23625;48.784;9.336;2023-12-20T13:47:50;4.35;;;1.48;;
37785;SDS011;23625;48.784;9.336;2023-12-20T13:50:16;6.10;;;1.33;;
37785;SDS011;23625;48.784;9.336;2023-12-20T13:52:41;4.30;;;1.50;;
37785;SDS011;23625;48.784;9.336;2023-12-20T13:55:07;5.72;;;1.70;;
37785;SDS011;23625;48.784;9.336;2023-12-20T13:57:33;6.35;;;1.40;;
37785;SDS011;23625;48.784;9.336;2023-12-20T13:59:59;10.02;;;2.80;;
37785;SDS011;23625;48.784;9.336;2023-12-20T14:02:24;8.95;;;1.98;;
37785;SDS011;23625;48.784;9.336;2023-12-20T14:04:51;8.18;;;1.50;;
37785;SDS011;23625;48.784;9.336;2023-12-20T14:07:17;4.57;;;0.93;;
37785;SDS011;23625;48.784;9.336;2023-12-20T14:09:43;12.18;;;1.45;;
37785;SDS011;23625;48.784;9.336;2023-12-20T14:12:10;8.63;;;1.08;;
37785;SDS011;23625;48.784;9.336;2023-12-20T14:14:36;9.93;;;1.05;;
37785;SDS011;23625;48.784;9.336;2023-12-20T14:17:02;14.43;;;2.13;;
37785;SDS011;23625;48.784;9.336;2023-12-20T14:19:28;7.45;;;2.30;;
37785;SDS011;23625;48.784;9.336;2023-12-20T14:21:54;6.57;;;2.55;;
37785;SDS011;23625;48.784;9.336;2023-12-20T14:24:20;12.10;;;1.30;;
37785;SDS011;23625;48.784;9.336;2023-12-20T14:26:45;12.00;;;2.30;;
37785;SDS011;23625;48.784;9.336;2023-12-20T14:29:11;12.95;;;2.92;;
37785;SDS011;23625;48.784;9.336;2023-12-20T14:31:37;12.45;;;3.42;;
37785;SDS011;23625;48.784;9.336;2023-12-20T14:34:03;9.68;;;1.35;;
37785;SDS011;23625;48.784;9.336;2023-12-20T14:36:29;3.22;;;1.38;;
37785;SDS011;23625;48.784;9.336;2023-12-20T14:38:56;17.73;;;5.75;;
37785;SDS011;23625;48.784;9.336;2023-12-20T14:41:22;10.52;;;3.08;;
37785;SDS011;23625;48.784;9.336;2023-12-20T14:43:49;12.10;;;3.03;;
37785;SDS011;23625;48.784;9.336;2023-12-20T14:46:16;22.27;;;4.82;;
37785;SDS011;23625;48.784;9.336;2023-12-20T14:48:42;7.35;;;2.22;;